KSEP/SEP METAR and TAF weather

Enter ICAO airport designator
Station Type Date Time Source
KSEP METAR 2018/12/13 22:35 UTC NOAA

KSEP 132235Z AUTO 30007KT 2 1/2SM BKN005 OVC012 07/05 A2979 RMK AO2 T00650052


Station Type Date Time Source
KSEP Decoded METAR 2018/12/13 22:35 UTC NOAA

Stephenville, Clark Field Municipal Airport, TX, United States (KSEP) 32-13N 098-11W 402M
Dec 13, 2018 - 05:35 PM EST / 2018.12.13 2235 UTC
Wind: from the WNW (300 degrees) at 8 MPH (7 KT):0
Visibility: 2 1/2 mile(s):0
Sky conditions: overcast
Temperature: 43.7 F (6.5 C)
Dew Point: 41.4 F (5.2 C)
Relative Humidity: 91%
Pressure (altimeter): 29.79 in. Hg (1008 hPa)
ob: KSEP 132235Z AUTO 30007KT 2 1/2SM BKN005 OVC012 07/05 A2979 RMK AO2 T00650052
cycle: 22

Station Type Date Time Source
KSEP TAF UTC NOAA

Error!


Example: see airport list